Time;durP1;ratioP1;P1;durP2;ratioP2;P2;SDS_P1;SDS_P2;PMS_P1;PMS_P2;Temp;Humidity;BMP_temperature;BMP_pressure;BME280_temperature;BME280_humidity;BME280_pressure;Samples;Min_cycle;Max_cycle;Signal;HPM_P1;HPM_P2
2023/02/14 00:01:11;;;;;;;356.77;167.25;;;2.90;99.90;;;;;;4967165;28;20045;-69
2023/02/14 00:03:38;;;;;;;122.03;70.43;;;3.20;99.90;;;;;;4934780;28;20502;-69
2023/02/14 00:06:12;;;;;;;131.68;70.40;;;3.00;99.90;;;;;;4963941;28;20051;-68
2023/02/14 00:08:43;;;;;;;130.75;68.20;;;2.90;99.90;;;;;;4964889;28;20047;-68
2023/02/14 00:11:12;;;;;;;134.85;69.70;;;2.70;99.90;;;;;;4966362;28;20035;-69
2023/02/14 00:15:20;;;;;;;129.75;69.25;;;2.80;99.90;;;;;;4964448;28;20483;-69
2023/02/14 00:16:27;;;;;;;115.95;62.97;;;2.70;99.90;;;;;;4967460;28;20035;-66
2023/02/14 00:19:03;;;;;;;113.88;65.03;;;2.70;99.90;;;;;;4965806;28;20383;-65
2023/02/14 00:21:34;;;;;;;122.53;66.65;;;2.80;99.90;;;;;;4964470;28;20514;-66
2023/02/14 00:24:04;;;;;;;126.40;66.93;;;2.80;99.90;;;;;;4936995;29;20654;-68
2023/02/14 00:26:31;;;;;;;127.95;67.35;;;2.70;99.90;;;;;;4939035;28;20039;-67
2023/02/14 00:28:59;;;;;;;131.32;66.95;;;2.70;99.90;;;;;;4936845;29;20062;-69
2023/02/14 00:31:26;;;;;;;117.00;62.75;;;2.70;99.90;;;;;;4939651;28;20038;-68
2023/02/14 00:33:54;;;;;;;113.80;56.90;;;2.80;99.90;;;;;;4969599;28;20043;-69
2023/02/14 00:36:21;;;;;;;101.07;52.13;;;2.60;99.90;;;;;;4942544;29;20503;-66
2023/02/14 00:38:48;;;;;;;87.78;50.85;;;2.30;99.90;;;;;;4965743;28;20480;-68
2023/02/14 00:41:18;;;;;;;100.75;50.30;;;2.20;99.90;;;;;;4953502;28;20042;-70
2023/02/14 00:43:51;;;;;;;92.13;50.97;;;2.40;99.90;;;;;;4936436;28;20130;-68
2023/02/14 00:46:21;;;;;;;102.35;49.58;;;2.30;99.90;;;;;;4951931;28;20042;-68
2023/02/14 00:48:48;;;;;;;106.22;52.65;;;2.40;99.90;;;;;;4966097;28;20387;-68
2023/02/14 00:51:17;;;;;;;96.93;51.28;;;2.40;99.90;;;;;;4938786;29;20048;-68
2023/02/14 00:53:46;;;;;;;86.88;48.47;;;2.30;99.90;;;;;;4943562;29;20055;-67
2023/02/14 00:56:15;;;;;;;78.97;45.13;;;2.20;99.90;;;;;;4936234;29;20154;-70
2023/02/14 00:58:43;;;;;;;90.10;48.20;;;2.40;99.90;;;;;;4951977;28;20066;-69
2023/02/14 01:01:11;;;;;;;96.63;49.20;;;2.20;99.90;;;;;;4941854;28;20047;-70
2023/02/14 01:03:39;;;;;;;91.38;47.40;;;2.40;99.90;;;;;;4942587;28;20051;-70
2023/02/14 01:06:07;;;;;;;78.43;42.58;;;2.60;99.90;;;;;;4922035;29;20058;-70
2023/02/14 01:08:34;;;;;;;81.40;42.30;;;2.50;99.90;;;;;;4942585;29;20044;-66
2023/02/14 01:11:14;;;;;;;71.28;39.58;;;2.20;99.90;;;;;;4932839;29;20519;-67
2023/02/14 01:13:42;;;;;;;78.80;43.67;;;2.40;99.90;;;;;;4932854;29;20456;-70
2023/02/14 01:16:13;;;;;;;108.10;52.47;;;2.30;99.90;;;;;;4948289;28;20403;-70
2023/02/14 01:18:41;;;;;;;79.78;46.08;;;2.30;99.90;;;;;;4934713;29;20135;-68
2023/02/14 01:21:14;;;;;;;79.95;43.05;;;2.00;99.90;;;;;;4932739;29;20408;-70
2023/02/14 01:23:43;;;;;;;63.58;37.50;;;1.90;99.90;;;;;;4933980;29;20048;-68
2023/02/14 01:26:11;;;;;;;66.18;36.13;;;2.00;99.90;;;;;;4933461;29;20050;-67
2023/02/14 01:28:40;;;;;;;73.68;41.25;;;2.10;99.90;;;;;;4933432;29;20062;-68
2023/02/14 01:31:16;;;;;;;91.35;44.53;;;2.40;99.90;;;;;;4934229;29;20050;-67
2023/02/14 01:33:45;;;;;;;78.60;44.97;;;2.30;99.90;;;;;;4924130;29;20114;-66
2023/02/14 01:36:19;;;;;;;86.07;45.20;;;2.20;99.90;;;;;;4932378;29;20078;-67
2023/02/14 01:38:50;;;;;;;78.25;43.42;;;2.30;99.90;;;;;;4938996;29;20047;-67
2023/02/14 01:41:17;;;;;;;89.07;46.25;;;2.30;99.90;;;;;;4931388;29;20048;-68
2023/02/14 01:44:13;;;;;;;87.68;44.85;;;2.30;99.90;;;;;;4936320;29;20047;-68
2023/02/14 01:46:43;;;;;;;81.85;40.92;;;2.10;99.90;;;;;;4926663;29;20437;-68
2023/02/14 01:49:15;;;;;;;77.30;41.15;;;2.20;99.90;;;;;;4938104;29;20053;-68
2023/02/14 01:51:47;;;;;;;68.60;39.25;;;2.20;99.90;;;;;;4933436;29;20482;-68
2023/02/14 01:54:16;;;;;;;89.68;43.88;;;2.10;99.90;;;;;;4931501;29;20039;-69
2023/02/14 01:56:48;;;;;;;73.38;42.20;;;2.20;99.90;;;;;;4954238;28;20050;-69
2023/02/14 01:59:19;;;;;;;77.28;41.80;;;2.10;99.90;;;;;;4938657;29;20487;-69
2023/02/14 02:01:49;;;;;;;70.47;40.55;;;2.10;99.90;;;;;;4950540;29;20043;-69
2023/02/14 02:04:22;;;;;;;66.87;36.33;;;2.10;99.90;;;;;;4944783;29;20124;-69
2023/02/14 02:06:55;;;;;;;83.43;40.58;;;2.10;99.90;;;;;;4955408;29;20498;-69
2023/02/14 02:09:45;;;;;;;63.47;37.88;;;1.90;99.90;;;;;;4957571;28;20039;-67
2023/02/14 02:12:13;;;;;;;68.00;38.88;;;1.40;99.90;;;;;;4941464;29;20039;-69
2023/02/14 02:14:41;;;;;;;82.10;40.45;;;1.50;99.90;;;;;;4955543;28;20460;-68
2023/02/14 02:17:36;;;;;;;73.03;41.35;;;1.80;99.90;;;;;;4956503;28;20035;-69
2023/02/14 02:20:19;;;;;;;64.07;35.00;;;2.00;99.90;;;;;;4957496;28;20098;-69
2023/02/14 02:22:55;;;;;;;55.13;30.50;;;1.90;99.90;;;;;;4956353;28;20047;-68
2023/02/14 02:25:29;;;;;;;50.03;29.42;;;1.60;99.90;;;;;;4962450;28;20031;-69
2023/02/14 02:28:33;;;;;;;55.05;31.30;;;1.30;99.90;;;;;;4974165;28;20051;-69
2023/02/14 02:31:45;;;;;;;63.67;33.40;;;1.40;99.90;;;;;;4947602;28;20050;-69
2023/02/14 02:34:18;;;;;;;66.53;35.22;;;1.60;99.90;;;;;;4926882;29;20115;-69
2023/02/14 02:36:52;;;;;;;66.07;37.08;;;1.70;99.90;;;;;;4956287;28;20512;-69
2023/02/14 02:39:28;;;;;;;76.90;38.42;;;1.80;99.90;;;;;;4958037;28;20043;-69
2023/02/14 02:42:20;;;;;;;70.30;39.25;;;2.00;99.90;;;;;;4938413;29;20043;-69
2023/02/14 02:45:09;;;;;;;72.97;40.05;;;2.00;99.90;;;;;;4955367;28;20051;-68
2023/02/14 02:47:52;;;;;;;62.85;38.00;;;1.90;99.90;;;;;;4922434;29;20511;-67
2023/02/14 02:53:46;;;;;;;65.80;35.88;;;1.70;99.90;;;;;;4951584;28;20048;-69
2023/02/14 02:59:19;;;;;;;67.93;37.75;;;1.60;99.90;;;;;;4960755;28;20380;-69
2023/02/14 03:01:54;;;;;;;70.60;39.20;;;1.70;99.90;;;;;;4933159;29;20388;-70
2023/02/14 03:09:56;;;;;;;89.05;46.15;;;1.80;99.90;;;;;;4963160;28;20043;-69
2023/02/14 03:12:32;;;;;;;93.55;48.22;;;1.80;99.90;;;;;;4953616;28;20043;-67
2023/02/14 03:15:34;;;;;;;87.45;45.53;;;1.80;99.90;;;;;;4949479;28;20047;-69
2023/02/14 03:21:21;;;;;;;70.43;39.83;;;1.60;99.90;;;;;;4944954;28;20039;-69
2023/02/14 03:24:07;;;;;;;76.05;39.50;;;1.50;99.90;;;;;;4937283;29;20495;-69
2023/02/14 03:26:46;;;;;;;72.38;39.67;;;1.40;99.90;;;;;;4937659;28;20039;-69
2023/02/14 03:29:19;;;;;;;67.78;34.20;;;1.20;99.90;;;;;;4953545;28;20407;-69
2023/02/14 03:32:05;;;;;;;63.15;34.55;;;0.90;99.90;;;;;;4954687;28;20039;-69
2023/02/14 03:34:52;;;;;;;63.90;33.45;;;0.80;99.90;;;;;;4954904;28;20070;-68
2023/02/14 03:37:31;;;;;;;54.97;30.15;;;0.80;99.90;;;;;;4954628;28;20039;-69
2023/02/14 03:40:11;;;;;;;67.90;33.95;;;0.70;99.90;;;;;;4954379;28;20043;-69
2023/02/14 03:43:06;;;;;;;55.83;32.53;;;1.00;99.90;;;;;;4944112;28;20043;-69
2023/02/14 03:45:45;;;;;;;64.68;36.47;;;1.50;99.90;;;;;;4955098;28;20039;-69
2023/02/14 03:48:17;;;;;;;83.28;41.88;;;1.70;99.90;;;;;;4954450;28;20043;-69
2023/02/14 03:50:48;;;;;;;82.28;44.00;;;1.70;99.90;;;;;;4955730;28;20361;-69
2023/02/14 03:53:21;;;;;;;93.22;46.25;;;1.60;99.90;;;;;;4937483;29;20451;-69
2023/02/14 03:55:54;;;;;;;82.03;45.65;;;1.60;99.90;;;;;;4953740;28;20039;-68
2023/02/14 03:58:32;;;;;;;75.55;44.85;;;1.60;99.90;;;;;;4954118;28;20504;-69
2023/02/14 04:01:12;;;;;;;78.93;43.90;;;1.70;99.90;;;;;;4937640;28;20039;-69
2023/02/14 04:03:41;;;;;;;85.90;46.00;;;1.60;99.90;;;;;;4936778;29;20053;-69
2023/02/14 04:06:09;;;;;;;86.50;45.45;;;1.40;99.90;;;;;;4949685;28;20050;-69
2023/02/14 04:08:36;;;;;;;83.07;43.42;;;1.20;99.90;;;;;;4959402;28;20081;-69
2023/02/14 04:11:04;;;;;;;74.45;41.47;;;1.20;99.90;;;;;;4945640;29;20035;-69
2023/02/14 04:13:32;;;;;;;59.08;37.63;;;1.30;99.90;;;;;;4936635;29;20043;-69
2023/02/14 04:15:59;;;;;;;71.68;37.13;;;1.50;99.90;;;;;;4958523;28;20125;-69
2023/02/14 04:21:12;;;;;;;65.22;34.22;;;1.50;99.90;;;;;;4946355;28;20051;-67
2023/02/14 04:23:39;;;;;;;70.50;38.83;;;1.50;99.90;;;;;;4964757;28;20046;-69
2023/02/14 04:26:07;;;;;;;70.93;40.65;;;1.60;99.90;;;;;;4943869;29;20079;-68
2023/02/14 04:28:34;;;;;;;80.65;40.38;;;1.40;99.90;;;;;;4945415;28;20046;-68
2023/02/14 04:31:03;;;;;;;83.97;42.80;;;1.20;99.90;;;;;;4953510;28;20047;-67
2023/02/14 04:33:31;;;;;;;84.88;43.20;;;1.30;99.90;;;;;;4953170;28;20051;-66
2023/02/14 04:35:59;;;;;;;79.10;43.58;;;1.20;99.90;;;;;;4957351;28;20453;-68
2023/02/14 04:38:27;;;;;;;78.97;42.60;;;1.20;99.90;;;;;;4936174;28;20414;-68
2023/02/14 04:40:54;;;;;;;77.50;41.88;;;1.00;99.90;;;;;;4953320;28;20471;-67
2023/02/14 04:43:22;;;;;;;82.95;42.83;;;0.90;99.90;;;;;;4936330;28;20057;-67
2023/02/14 04:45:49;;;;;;;80.18;42.83;;;0.60;99.90;;;;;;4953799;28;20039;-68
2023/02/14 04:48:16;;;;;;;72.05;40.72;;;0.50;99.90;;;;;;4950184;28;20054;-68
2023/02/14 04:50:43;;;;;;;73.88;39.17;;;0.80;99.90;;;;;;4954728;28;20069;-68
2023/02/14 04:53:10;;;;;;;83.78;41.85;;;1.00;99.90;;;;;;4967956;28;20095;-68
2023/02/14 04:55:38;;;;;;;76.07;40.30;;;0.80;99.90;;;;;;4953427;28;20039;-68
2023/02/14 04:58:05;;;;;;;72.10;40.92;;;0.80;99.90;;;;;;4952984;28;20047;-69
2023/02/14 05:00:32;;;;;;;66.78;38.70;;;0.80;99.90;;;;;;4953568;28;20031;-69
2023/02/14 05:03:00;;;;;;;67.53;40.30;;;1.00;99.90;;;;;;4964856;28;20042;-68
2023/02/14 05:05:27;;;;;;;67.07;38.75;;;0.80;99.90;;;;;;4952764;28;20086;-68
2023/02/14 05:07:54;;;;;;;80.60;41.03;;;0.60;99.90;;;;;;4953025;28;20047;-68
2023/02/14 05:10:22;;;;;;;64.38;38.13;;;0.60;99.90;;;;;;4952724;28;20487;-69
2023/02/14 05:12:49;;;;;;;65.78;39.30;;;0.80;99.90;;;;;;4953032;28;20043;-68
2023/02/14 05:15:16;;;;;;;65.82;37.60;;;0.60;99.90;;;;;;4952634;28;20047;-68
2023/02/14 05:17:44;;;;;;;62.40;36.30;;;0.70;99.90;;;;;;4935651;29;20574;-68
2023/02/14 05:20:11;;;;;;;66.47;36.58;;;0.90;99.90;;;;;;4952871;28;20384;-68
2023/02/14 05:22:38;;;;;;;68.78;37.58;;;1.00;99.90;;;;;;4952521;28;20106;-67
2023/02/14 05:25:06;;;;;;;71.65;38.65;;;1.00;99.90;;;;;;4931923;29;20217;-68
2023/02/14 05:27:34;;;;;;;66.90;36.72;;;1.10;99.90;;;;;;4943295;29;20399;-70
2023/02/14 05:30:01;;;;;;;60.55;34.88;;;1.10;99.90;;;;;;4934447;29;20043;-68
2023/02/14 05:32:28;;;;;;;63.75;35.15;;;1.10;99.90;;;;;;4960020;28;20039;-69
2023/02/14 05:34:56;;;;;;;65.72;37.40;;;1.20;99.90;;;;;;4952353;28;20043;-69
2023/02/14 05:37:24;;;;;;;68.45;38.70;;;1.20;99.90;;;;;;4940231;28;20102;-69
2023/02/14 05:39:51;;;;;;;66.05;38.08;;;1.00;99.90;;;;;;4958247;28;20522;-68
2023/02/14 05:42:19;;;;;;;82.20;39.67;;;1.10;99.90;;;;;;4956935;28;20412;-69
2023/02/14 05:44:47;;;;;;;71.50;40.35;;;1.20;99.90;;;;;;4951050;29;20463;-69
2023/02/14 05:47:14;;;;;;;70.50;38.92;;;1.10;99.90;;;;;;4958492;28;20074;-69
2023/02/14 05:49:42;;;;;;;67.95;38.58;;;1.10;99.90;;;;;;4952544;28;20043;-71
2023/02/14 05:52:10;;;;;;;76.28;39.83;;;1.20;99.90;;;;;;4951408;28;20039;-68
2023/02/14 05:54:37;;;;;;;81.45;40.65;;;0.80;99.90;;;;;;4956166;28;20039;-68
2023/02/14 05:57:04;;;;;;;74.50;40.75;;;0.70;99.90;;;;;;4948232;28;20048;-69
2023/02/14 05:59:31;;;;;;;70.32;37.75;;;0.70;99.90;;;;;;4946951;28;20035;-69
2023/02/14 06:01:58;;;;;;;66.93;38.35;;;0.80;99.90;;;;;;4957910;28;20046;-69
2023/02/14 06:04:26;;;;;;;73.25;39.60;;;0.90;99.90;;;;;;4941259;28;20042;-69
2023/02/14 06:06:53;;;;;;;74.38;38.63;;;1.00;99.90;;;;;;4958524;28;20127;-69
2023/02/14 06:09:20;;;;;;;92.28;47.67;;;1.10;99.90;;;;;;4953112;28;20044;-70
2023/02/14 06:11:48;;;;;;;72.45;39.90;;;0.80;99.90;;;;;;4946596;28;20046;-67
2023/02/14 06:14:15;;;;;;;152.50;71.43;;;0.90;99.90;;;;;;4954277;28;20079;-68
2023/02/14 06:16:43;;;;;;;116.22;57.97;;;1.20;99.90;;;;;;4944532;28;20138;-68
2023/02/14 06:19:10;;;;;;;122.50;59.58;;;1.30;99.90;;;;;;4948889;28;20043;-67
2023/02/14 06:21:38;;;;;;;106.45;53.03;;;1.20;99.90;;;;;;4966237;28;20043;-70
2023/02/14 06:24:05;;;;;;;80.30;45.45;;;1.00;99.90;;;;;;4970892;28;20047;-69
2023/02/14 06:26:34;;;;;;;65.97;37.47;;;1.20;99.90;;;;;;4950506;28;20464;-68
2023/02/14 06:29:03;;;;;;;73.15;39.20;;;0.90;99.90;;;;;;4965928;28;20047;-69
2023/02/14 06:31:30;;;;;;;68.57;39.65;;;1.10;99.90;;;;;;4961344;28;20046;-69
2023/02/14 06:33:57;;;;;;;74.45;38.58;;;1.40;99.90;;;;;;4942218;28;20444;-70
2023/02/14 06:36:25;;;;;;;69.90;37.63;;;1.30;99.90;;;;;;4948252;28;20043;-70
2023/02/14 06:38:53;;;;;;;70.00;36.53;;;1.30;99.90;;;;;;4942365;29;20047;-68
2023/02/14 06:41:20;;;;;;;71.43;36.42;;;1.30;99.90;;;;;;4938356;28;20047;-70
2023/02/14 06:43:47;;;;;;;60.70;36.92;;;1.50;99.90;;;;;;4968562;28;20045;-69
2023/02/14 06:46:16;;;;;;;131.60;65.60;;;1.70;99.90;;;;;;4938751;29;20119;-69
2023/02/14 06:48:43;;;;;;;130.40;64.78;;;1.80;99.90;;;;;;4938244;29;20047;-72
2023/02/14 06:51:11;;;;;;;76.60;43.50;;;1.60;99.90;;;;;;4949967;28;20050;-70
2023/02/14 06:53:38;;;;;;;78.43;43.30;;;1.40;99.90;;;;;;4961970;28;20850;-70
2023/02/14 06:56:06;;;;;;;82.10;45.13;;;1.50;99.90;;;;;;4947964;29;20059;-72
2023/02/14 06:58:33;;;;;;;73.65;43.00;;;1.70;99.90;;;;;;4938164;29;20039;-70
2023/02/14 07:01:01;;;;;;;82.20;45.58;;;1.80;99.90;;;;;;4942400;28;20055;-70
2023/02/14 07:03:28;;;;;;;84.78;45.25;;;1.80;99.90;;;;;;4946508;29;20043;-71
2023/02/14 07:05:57;;;;;;;72.05;41.70;;;1.90;99.90;;;;;;4935710;28;20039;-71
2023/02/14 07:08:24;;;;;;;79.25;43.17;;;2.10;99.90;;;;;;4945410;29;20039;-74
2023/02/14 07:10:56;;;;;;;75.82;44.17;;;2.10;99.90;;;;;;4951476;28;20039;-70
2023/02/14 07:13:25;;;;;;;73.05;43.92;;;2.10;99.90;;;;;;4953771;28;20042;-71
2023/02/14 07:15:52;;;;;;;75.10;40.72;;;2.20;99.90;;;;;;4967822;28;20097;-73
2023/02/14 07:18:19;;;;;;;67.28;40.70;;;2.40;99.90;;;;;;4954044;29;20044;-72
2023/02/14 07:20:48;;;;;;;68.90;41.35;;;2.60;99.90;;;;;;4963973;28;20054;-72
2023/02/14 07:23:16;;;;;;;71.93;40.22;;;2.70;99.90;;;;;;4964320;28;20043;-72
2023/02/14 07:25:43;;;;;;;74.78;41.13;;;2.80;99.90;;;;;;4943499;28;20051;-72
2023/02/14 07:28:11;;;;;;;66.93;39.92;;;2.90;99.90;;;;;;4950919;28;20055;-72
2023/02/14 07:30:38;;;;;;;78.05;42.95;;;3.00;99.90;;;;;;4945564;28;20054;-72
2023/02/14 07:33:05;;;;;;;77.90;43.13;;;3.20;99.90;;;;;;4954226;28;20042;-71
2023/02/14 07:35:34;;;;;;;74.90;43.97;;;3.20;99.90;;;;;;4963484;28;20039;-71
2023/02/14 07:38:01;;;;;;;105.03;51.65;;;3.10;99.90;;;;;;4947916;28;20141;-71
2023/02/14 07:40:29;;;;;;;86.78;48.33;;;3.20;99.90;;;;;;4951843;29;20495;-70
2023/02/14 07:42:57;;;;;;;93.90;53.58;;;3.50;99.90;;;;;;4937774;29;20062;-71
2023/02/14 07:45:25;;;;;;;91.93;53.45;;;3.60;99.90;;;;;;4949677;29;20039;-72
2023/02/14 07:47:54;;;;;;;97.93;57.00;;;3.70;99.90;;;;;;4954735;29;20118;-70
2023/02/14 07:50:22;;;;;;;87.45;50.70;;;3.90;99.90;;;;;;4955050;28;20043;-72
2023/02/14 07:52:50;;;;;;;75.50;46.53;;;3.80;99.90;;;;;;4920518;29;20510;-71
2023/02/14 07:55:18;;;;;;;77.45;44.30;;;4.00;99.90;;;;;;4925356;29;20035;-71
2023/02/14 07:57:48;;;;;;;87.85;50.03;;;4.00;99.90;;;;;;4931128;28;20051;-71
2023/02/14 08:00:16;;;;;;;;;;;3.90;99.90;;;;;;4956806;28;20402;-72
2023/02/14 08:02:46;;;;;;;90.15;50.03;;;4.20;99.90;;;;;;4950905;28;20005;-71
2023/02/14 08:05:14;;;;;;;88.03;51.97;;;4.30;99.90;;;;;;4947933;28;20411;-70
2023/02/14 08:07:42;;;;;;;78.50;45.42;;;4.40;99.90;;;;;;4952944;28;20186;-71
2023/02/14 08:10:10;;;;;;;67.80;41.33;;;4.60;99.90;;;;;;4948674;28;20410;-70
2023/02/14 08:12:57;;;;;;;65.18;39.20;;;4.80;99.90;;;;;;4953213;28;20039;-70
2023/02/14 08:18:17;;;;;;;59.67;38.80;;;5.30;99.90;;;;;;4946444;28;20129;-71
2023/02/14 08:20:48;;;;;;;65.72;37.85;;;5.40;99.90;;;;;;4957015;28;20107;-71
2023/02/14 08:23:16;;;;;;;;;;;5.70;99.90;;;;;;4949293;28;20038;-71
2023/02/14 08:25:44;;;;;;;59.67;36.03;;;5.90;99.90;;;;;;4964214;28;20270;-71
2023/02/14 08:28:12;;;;;;;65.32;37.08;;;6.10;99.90;;;;;;4968374;28;20039;-70
2023/02/14 08:30:41;;;;;;;65.93;37.55;;;6.20;99.70;;;;;;4952056;28;20039;-70
2023/02/14 08:33:08;;;;;;;62.05;38.10;;;6.30;99.30;;;;;;4961247;28;20043;-70
2023/02/14 08:35:36;;;;;;;62.63;37.58;;;6.60;99.30;;;;;;4954156;28;20043;-71
2023/02/14 08:38:04;;;;;;;60.83;37.53;;;6.80;99.00;;;;;;4953763;28;20039;-72
2023/02/14 08:40:34;;;;;;;64.47;36.85;;;6.90;98.40;;;;;;4953457;28;20426;-73
2023/02/14 08:43:02;;;;;;;69.88;38.28;;;6.90;97.50;;;;;;4953663;28;20114;-71
2023/02/14 08:45:29;;;;;;;66.32;35.90;;;7.00;97.80;;;;;;4953743;28;20152;-72
2023/02/14 08:48:05;;;;;;;68.22;36.00;;;7.30;96.90;;;;;;4952278;28;20040;-71
2023/02/14 08:50:33;;;;;;;58.85;34.00;;;7.50;96.40;;;;;;4932454;28;20050;-71
2023/02/14 08:53:04;;;;;;;58.33;33.35;;;7.80;95.60;;;;;;4943443;28;20043;-71
2023/02/14 08:55:33;;;;;;;62.80;35.65;;;8.00;94.30;;;;;;4947703;28;20779;-71
2023/02/14 08:58:00;;;;;;;60.30;34.67;;;7.90;93.30;;;;;;4964213;28;20055;-70
2023/02/14 09:00:28;;;;;;;56.65;34.38;;;8.20;93.00;;;;;;4971171;28;20118;-71
2023/02/14 09:02:55;;;;;;;52.13;31.20;;;8.40;92.20;;;;;;4962357;28;20043;-71
2023/02/14 09:05:23;;;;;;;52.00;30.48;;;8.70;91.80;;;;;;4940782;28;20058;-72
2023/02/14 09:07:51;;;;;;;41.08;26.65;;;8.90;90.60;;;;;;4965551;28;20074;-72
2023/02/14 09:10:18;;;;;;;47.03;26.63;;;9.00;89.30;;;;;;4947625;28;20044;-72
2023/02/14 09:12:50;;;;;;;34.10;19.02;;;8.90;88.30;;;;;;4965666;28;20102;-74
2023/02/14 09:15:18;;;;;;;26.35;16.85;;;8.90;84.30;;;;;;4969601;28;20050;-72
2023/02/14 09:17:46;;;;;;;27.27;17.15;;;8.90;83.20;;;;;;4962200;28;20058;-71
2023/02/14 09:20:14;;;;;;;30.08;18.80;;;8.80;83.00;;;;;;4952447;28;20047;-71
2023/02/14 09:22:42;;;;;;;28.17;18.10;;;9.10;83.60;;;;;;4964553;28;20043;-70
2023/02/14 09:25:10;;;;;;;33.88;21.30;;;9.50;82.80;;;;;;4945848;28;20043;-70
2023/02/14 09:27:38;;;;;;;29.02;19.15;;;9.70;81.00;;;;;;4932936;28;20047;-70
2023/02/14 09:30:09;;;;;;;32.75;17.95;;;9.70;79.80;;;;;;4940921;28;21161;-72
2023/02/14 09:32:36;;;;;;;22.77;15.48;;;9.90;81.40;;;;;;4941207;28;20459;-71
2023/02/14 09:35:04;;;;;;;19.98;14.50;;;10.10;78.90;;;;;;4959671;28;20051;-70
2023/02/14 09:40:19;;;;;;;21.65;14.88;;;10.10;77.40;;;;;;4947452;28;20506;-70
2023/02/14 09:43:01;;;;;;;21.67;14.85;;;10.20;76.20;;;;;;4961865;28;20391;-68
2023/02/14 09:45:31;;;;;;;23.92;16.63;;;10.20;76.50;;;;;;4947336;28;20051;-68
2023/02/14 09:48:35;;;;;;;27.90;16.77;;;10.20;75.50;;;;;;4958929;28;20122;-70
2023/02/14 09:51:06;;;;;;;25.88;15.50;;;10.60;75.60;;;;;;4910826;28;20044;-70
2023/02/14 09:53:39;;;;;;;26.65;15.77;;;10.60;73.80;;;;;;4942118;28;20059;-71
2023/02/14 09:56:34;;;;;;;52.97;17.48;;;9.80;74.60;;;;;;4964965;28;20089;-72
2023/02/14 09:59:28;;;;;;;18.90;12.57;;;8.90;76.90;;;;;;4933971;29;20411;-69
2023/02/14 10:02:08;;;;;;;33.70;20.80;;;8.50;78.10;;;;;;4946642;28;20049;-69
2023/02/14 10:04:53;;;;;;;19.13;13.25;;;9.00;77.80;;;;;;4939758;28;20094;-71
2023/02/14 10:07:59;;;;;;;20.48;13.35;;;9.70;76.80;;;;;;4961579;28;20501;-72
2023/02/14 10:10:44;;;;;;;21.15;15.02;;;10.10;74.90;;;;;;4934510;28;20051;-72
2023/02/14 10:13:26;;;;;;;23.65;15.75;;;10.20;74.00;;;;;;4963042;28;20050;-68
2023/02/14 10:16:01;;;;;;;26.50;16.42;;;10.40;74.70;;;;;;4960838;28;20053;-70
2023/02/14 10:18:56;;;;;;;25.08;15.80;;;10.20;74.90;;;;;;4960953;28;20102;-69
2023/02/14 10:21:30;;;;;;;31.20;15.70;;;10.10;74.30;;;;;;4934897;28;20422;-71
2023/02/14 10:24:10;;;;;;;21.83;14.68;;;10.30;73.80;;;;;;4942322;28;20411;-72
2023/02/14 10:26:40;;;;;;;20.73;14.67;;;10.00;73.80;;;;;;4970149;28;20503;-70
2023/02/14 10:29:18;;;;;;;27.70;15.20;;;10.00;74.40;;;;;;4967468;28;20038;-70
2023/02/14 10:31:59;;;;;;;20.63;14.20;;;10.20;74.30;;;;;;4931670;28;20299;-72
2023/02/14 10:34:44;;;;;;;23.55;14.95;;;10.60;74.60;;;;;;4974303;28;20451;-72
2023/02/14 10:37:49;;;;;;;22.90;14.52;;;10.60;73.10;;;;;;4972647;28;20039;-72
2023/02/14 10:40:33;;;;;;;21.00;14.27;;;10.40;74.20;;;;;;4953587;28;20036;-71
2023/02/14 10:43:43;;;;;;;21.70;13.80;;;10.60;74.30;;;;;;4960276;28;20043;-71
2023/02/14 10:46:16;;;;;;;18.40;12.88;;;10.60;73.60;;;;;;4895041;29;20054;-72
2023/02/14 10:48:49;;;;;;;41.38;13.93;;;10.70;73.60;;;;;;4961723;28;20087;-73
2023/02/14 10:51:23;;;;;;;21.42;13.38;;;10.50;72.20;;;;;;4952444;28;20424;-72
2023/02/14 10:54:03;;;;;;;19.73;13.68;;;10.70;73.30;;;;;;4957308;28;20048;-75
2023/02/14 10:56:39;;;;;;;21.05;13.55;;;11.30;72.20;;;;;;4940051;28;20506;-71
2023/02/14 10:59:34;;;;;;;20.42;12.20;;;11.80;70.50;;;;;;4938603;28;20062;-71
2023/02/14 11:02:07;;;;;;;20.83;12.23;;;11.90;69.30;;;;;;4960642;28;20664;-71
2023/02/14 11:04:34;;;;;;;19.88;13.48;;;11.50;68.90;;;;;;4942886;28;20083;-72
2023/02/14 11:07:15;;;;;;;21.73;13.93;;;11.20;69.40;;;;;;4937186;28;20059;-70
2023/02/14 11:09:42;;;;;;;19.40;12.40;;;11.60;79.00;;;;;;4953850;28;20070;-72
2023/02/14 11:12:29;;;;;;;24.45;13.80;;;12.10;70.50;;;;;;4954341;28;20407;-72
2023/02/14 11:15:19;;;;;;;19.55;13.55;;;13.30;68.80;;;;;;4952078;29;20043;-71
2023/02/14 11:17:46;;;;;;;18.00;12.57;;;13.60;65.40;;;;;;4936912;28;20047;-72
2023/02/14 11:20:22;;;;;;;20.30;13.40;;;17.10;58.90;;;;;;4959435;28;20495;-73
2023/02/14 11:22:50;;;;;;;16.90;11.23;;;18.90;52.90;;;;;;4972326;28;20042;-71
2023/02/14 11:25:28;;;;;;;18.10;12.80;;;18.40;50.30;;;;;;4971827;28;20501;-72
2023/02/14 11:28:03;;;;;;;18.30;11.25;;;18.60;50.30;;;;;;4960031;28;20051;-71
2023/02/14 11:30:42;;;;;;;15.85;10.20;;;19.10;50.40;;;;;;4965157;28;20051;-71
2023/02/14 11:33:27;;;;;;;14.05;9.38;;;20.70;47.50;;;;;;4970165;28;20089;-71
2023/02/14 11:35:55;;;;;;;15.52;9.88;;;20.60;46.90;;;;;;4944976;29;20061;-71
2023/02/14 11:38:30;;;;;;;16.77;11.82;;;21.60;45.70;;;;;;4954391;28;20051;-70
2023/02/14 11:40:58;;;;;;;12.02;8.82;;;20.20;47.00;;;;;;4937505;29;20493;-71
2023/02/14 11:43:35;;;;;;;25.13;7.65;;;16.10;50.90;;;;;;4952832;28;20043;-71
2023/02/14 11:46:04;;;;;;;11.18;7.40;;;13.90;55.40;;;;;;4953722;28;20395;-70
2023/02/14 11:48:34;;;;;;;13.18;7.50;;;14.50;54.20;;;;;;4955988;28;20074;-72
2023/02/14 11:51:13;;;;;;;12.20;6.78;;;14.90;53.80;;;;;;4954232;28;20055;-71
2023/02/14 11:53:47;;;;;;;13.32;6.32;;;14.40;53.10;;;;;;4940334;29;20054;-70
2023/02/14 11:56:16;;;;;;;11.13;6.45;;;14.20;54.00;;;;;;4955518;28;20038;-71
2023/02/14 11:58:50;;;;;;;10.05;6.15;;;14.90;54.10;;;;;;4954083;28;20051;-71
2023/02/14 12:01:28;;;;;;;8.45;6.30;;;15.20;52.60;;;;;;4962844;28;20479;-71
2023/02/14 12:04:00;;;;;;;9.02;6.50;;;15.00;53.40;;;;;;4959439;28;20054;-71
2023/02/14 12:06:34;;;;;;;13.65;6.78;;;14.90;53.40;;;;;;4952087;29;20066;-70
2023/02/14 12:09:11;;;;;;;9.25;6.65;;;14.80;53.80;;;;;;4953632;28;20051;-70
2023/02/14 12:11:38;;;;;;;15.63;7.13;;;14.50;54.10;;;;;;4942119;28;20043;-70
2023/02/14 12:14:20;;;;;;;13.73;8.52;;;14.30;54.80;;;;;;4946733;29;20459;-69
2023/02/14 12:17:26;;;;;;;13.18;7.20;;;14.90;54.00;;;;;;4938966;29;20050;-70
2023/02/14 12:20:17;;;;;;;14.10;7.35;;;13.70;55.90;;;;;;4935305;29;20036;-70
2023/02/14 12:23:09;;;;;;;9.60;6.75;;;14.30;55.20;;;;;;4943468;29;20530;-70
2023/02/14 12:25:43;;;;;;;17.25;7.18;;;14.80;53.70;;;;;;4939496;29;20031;-70
2023/02/14 12:28:17;;;;;;;12.27;6.93;;;17.30;50.50;;;;;;4938594;29;20043;-71
2023/02/14 12:30:44;;;;;;;14.05;7.28;;;17.10;48.80;;;;;;4941274;29;20110;-72
2023/02/14 12:33:17;;;;;;;10.02;6.93;;;19.20;46.20;;;;;;4935028;29;20472;-70
2023/02/14 12:36:03;;;;;;;12.68;8.02;;;17.90;46.70;;;;;;4940167;29;20109;-72
2023/02/14 12:38:48;;;;;;;18.52;9.18;;;16.30;49.00;;;;;;4945230;28;20082;-71
2023/02/14 12:41:30;;;;;;;12.05;7.63;;;16.00;50.20;;;;;;4932036;29;20404;-71
2023/02/14 12:44:06;;;;;;;14.63;6.88;;;17.20;48.10;;;;;;4946988;28;20400;-72
2023/02/14 12:46:36;;;;;;;10.60;7.50;;;17.30;48.20;;;;;;4931685;29;20043;-70
2023/02/14 12:49:09;;;;;;;14.00;8.25;;;16.30;49.00;;;;;;4931703;29;20048;-72
2023/02/14 12:51:45;;;;;;;12.32;7.35;;;17.50;46.80;;;;;;4932273;29;20046;-72
2023/02/14 12:54:12;;;;;;;17.40;8.35;;;17.60;46.90;;;;;;4932557;29;20083;-71
2023/02/14 12:57:04;;;;;;;14.75;7.88;;;17.20;47.70;;;;;;4932784;29;20067;-70
2023/02/14 12:59:57;;;;;;;13.52;7.90;;;17.60;46.80;;;;;;4933155;29;20059;-70
2023/02/14 13:02:36;;;;;;;12.95;8.52;;;19.10;45.70;;;;;;4908244;29;20509;-71
2023/02/14 13:05:30;;;;;;;18.98;9.05;;;15.70;50.10;;;;;;4929881;29;20066;-72
2023/02/14 13:08:31;;;;;;;17.48;9.20;;;16.10;50.20;;;;;;4943292;28;20043;-71
2023/02/14 13:11:42;;;;;;;12.60;7.32;;;17.10;47.90;;;;;;4953361;28;20062;-70
2023/02/14 13:14:25;;;;;;;16.30;8.48;;;19.00;45.80;;;;;;4904441;28;20062;-71
2023/02/14 13:17:08;;;;;;;15.13;8.07;;;18.20;46.80;;;;;;4936026;28;20407;-70
2023/02/14 13:19:41;;;;;;;10.85;7.57;;;18.50;45.50;;;;;;4953052;28;20047;-72
2023/02/14 13:22:16;;;;;;;16.45;9.80;;;18.70;45.40;;;;;;4935863;29;20420;-71
2023/02/14 13:25:02;;;;;;;11.20;8.32;;;19.80;44.70;;;;;;4935963;28;20047;-70
2023/02/14 13:27:38;;;;;;;48.38;11.65;;;15.80;48.60;;;;;;4953158;28;20039;-70
2023/02/14 13:30:07;;;;;;;13.05;8.23;;;17.30;47.70;;;;;;4953210;28;20035;-71